aviador You're here:

MROC Decoded Metar

SAN JOSE in COSTA RICA
Report Time2017-12-11 00:00:00
UTC Time2017-12-11 00:29:34
Flight Rules vfr VFR
Wind100° at 11 kt
W.Decomp.*RWY 07: 9.5 kt HW 5.5 kt RCW
W.Rank100° ranks 1
Current wind is above 100° avg. (8.9)
Visibility9999 m
Phenomena:N/A
Clouds:Few 035 Hf
Broken 110 Hf
Expected CloudBase > 2,000 ft AGL from Temp-Dew spread
Ceiling11,000 ft
Temp19°C (ISA +10)
Dew Point14°C (73% RH)
AAT16.3°C
QNH1018 hPa
Density Alt4,239 ft
Elevation3,018 ft
Report Wrong Elevation
Raw Report
MROC 110000Z 10011KT 9999 FEW035 BKN110 19/14 A3006 NOSIG=

Extra information for MROC:More info

Metar Taf Metar & Taf Last 4 Metars F.Rules Stats Wind Profile Meteogram Temp Stats Airport Information Weather charts Add Link Nearby VenuesMetar ALERT Operation Metar Decoded Social comments